Accueil
METAR-TAF:

METAR-TAF

Aéroports :

Altenstadt, Allemagne

latitude: 47-50N, longitude: 010-52E, altitude: 739 m

Observation

Le bulletin a été fait il y a 12 minutes, à 22:20 UTC
Vent 3 kt de ouest
Température 8°C
Humidité 61%
Pression 1027 hPa

METAR: ETHA 192220Z AUTO 27003KT //// // ////// 08/01 Q1027 ///

Heure: 00:32 (22:32 UTC)

Prévision

Le bulletin a été fait il y a 31 heures et 17 minutes, à 15:15 UTC
Prévision valable du 18 à 14 UTC au 18 à 23 UTC
Vent 10 kt de est/nord-est avec des rafales jusqu'à 20 kt
Visibilité: 1620 m
Quelques nuages à une hauteur de 4000 ft
Nuages épars à une hauteur de 28000 ft

TAF: ETHA 181515Z 1814/1823 07010G20KT 9999 NSW FEW040 SCT280 CANCEL 1620

Observations et prévisions météorologiques de plus de 4000 aéroports (messages METAR et TAF).

Les stations disponibles sont représentées par des disques jaunes et rouges sur la carte.

Passer la souris dessus pour voir le nom de la station.

Cliquer dessus pour voir les observations et prévisions météorologiques.

Pour changer de carte: cliquez sur les boutons verts avec une croix noire pour zoomer, sur le bouton vert avec un tiret pour effectuer un zoom arrière, ou sur les flèches vertes pour les cartes adjacentes.


METAR-TAF: